Time;durP1;ratioP1;P1;durP2;ratioP2;P2;SDS_P1;SDS_P2;PMS_P1;PMS_P2;Temp;Humidity;BMP_temperature;BMP_pressure;BME280_temperature;BME280_humidity;BME280_pressure;Samples;Min_cycle;Max_cycle;Signal;HPM_P1;HPM_P2
2022/11/26 00:00:24;;;;;;;3.73;2.20;;;;;1.00;97327.00;;;;5082223;28;20469;-69
2022/11/26 00:03:14;;;;;;;6.17;2.47;;;;;0.50;97318.00;;;;5089478;28;20483;-69
2022/11/26 00:06:04;;;;;;;2.03;1.70;;;;;0.60;97315.00;;;;5089329;28;20442;-69
2022/11/26 00:08:53;;;;;;;7.60;3.90;;;;;0.70;97303.00;;;;5089851;28;20853;-69
2022/11/26 00:11:43;;;;;;;14.70;5.40;;;;;0.80;97317.00;;;;5090297;28;20447;-69
2022/11/26 00:14:33;;;;;;;7.63;4.70;;;;;0.90;97321.00;;;;5076585;28;20453;-69
2022/11/26 00:17:23;;;;;;;9.30;5.20;;;;;0.90;97331.00;;;;5083542;28;20433;-69
2022/11/26 00:20:12;;;;;;;13.53;5.03;;;;;0.80;97331.00;;;;5076646;28;20477;-69
2022/11/26 00:23:03;;;;;;;12.73;5.87;;;;;1.10;97358.00;;;;5077028;28;20449;-69
2022/11/26 00:25:54;;;;;;;18.27;8.13;;;;;1.30;97351.00;;;;5076252;28;20442;-70
2022/11/26 00:28:49;;;;;;;10.60;4.90;;;;;1.00;97352.00;;;;5079948;28;21289;-69
2022/11/26 00:31:38;;;;;;;9.87;5.20;;;;;1.20;97357.00;;;;5087136;28;20413;-69
2022/11/26 00:34:27;;;;;;;9.97;5.10;;;;;1.30;97359.00;;;;5082651;28;20449;-69
2022/11/26 00:37:20;;;;;;;7.07;4.13;;;;;1.10;97362.00;;;;5085126;28;20473;-69
2022/11/26 00:40:20;;;;;;;7.80;3.77;;;;;1.10;97379.00;;;;5084382;28;20882;-69
2022/11/26 00:43:11;;;;;;;4.80;3.27;;;;;1.10;97368.00;;;;5084015;28;20438;-69
2022/11/26 00:46:01;;;;;;;6.27;4.10;;;;;1.40;97372.00;;;;5087674;28;20900;-69
2022/11/26 00:48:50;;;;;;;4.80;3.47;;;;;1.00;97373.00;;;;5081645;28;20806;-69
2022/11/26 00:51:39;;;;;;;6.37;3.83;;;;;1.50;97366.00;;;;5078980;28;20482;-69
2022/11/26 00:54:29;;;;;;;6.27;3.20;;;;;1.50;97382.00;;;;5088878;28;20583;-70
2022/11/26 00:57:18;;;;;;;10.13;4.00;;;;;1.20;97381.00;;;;5088917;28;20948;-70
2022/11/26 01:00:15;;;;;;;4.60;2.77;;;;;1.00;97388.00;;;;5079739;28;20437;-70
2022/11/26 01:03:06;;;;;;;5.50;2.97;;;;;1.20;97389.00;;;;5088906;28;20460;-70
2022/11/26 01:05:57;;;;;;;7.97;2.97;;;;;1.40;97384.00;;;;5084650;28;20445;-70
2022/11/26 01:08:47;;;;;;;2.63;2.20;;;;;1.30;97388.00;;;;5090154;28;20429;-70
2022/11/26 01:11:36;;;;;;;3.03;2.13;;;;;0.90;97383.00;;;;5089159;28;20513;-71
2022/11/26 01:14:25;;;;;;;7.53;2.97;;;;;0.90;97388.00;;;;5083404;28;20842;-71
2022/11/26 01:17:14;;;;;;;4.53;2.60;;;;;1.00;97380.00;;;;5081716;28;20458;-70
2022/11/26 01:20:07;;;;;;;3.60;2.20;;;;;1.30;97386.00;;;;5083292;28;20575;-70
2022/11/26 01:22:57;;;;;;;1.80;1.70;;;;;1.60;97387.00;;;;5082847;28;20436;-70
2022/11/26 01:25:47;;;;;;;2.00;1.47;;;;;1.00;97386.00;;;;5086985;28;20992;-69
2022/11/26 01:28:36;;;;;;;2.93;2.30;;;;;1.10;97389.00;;;;5081800;28;20425;-69
2022/11/26 01:31:26;;;;;;;3.27;2.57;;;;;1.20;97396.00;;;;5080933;28;20452;-69
2022/11/26 01:34:15;;;;;;;3.80;3.13;;;;;1.40;97396.00;;;;5085911;28;20453;-69
2022/11/26 01:37:12;;;;;;;4.33;2.70;;;;;1.60;97406.00;;;;5089305;28;20882;-69
2022/11/26 01:40:03;;;;;;;12.80;4.10;;;;;1.00;97396.00;;;;5075165;28;20430;-69
2022/11/26 01:42:53;;;;;;;1.97;1.87;;;;;1.30;97401.00;;;;5085757;28;20430;-69
2022/11/26 01:45:42;;;;;;;3.80;2.60;;;;;1.30;97392.00;;;;5080738;28;20499;-70
2022/11/26 01:48:34;;;;;;;3.17;2.30;;;;;1.30;97398.00;;;;5088171;28;20940;-70
2022/11/26 01:51:26;;;;;;;2.90;2.63;;;;;1.30;97386.00;;;;5085895;28;20433;-69
2022/11/26 01:54:17;;;;;;;2.33;1.83;;;;;1.50;97391.00;;;;5077740;28;20496;-69
2022/11/26 01:57:09;;;;;;;4.13;1.87;;;;;1.90;97393.00;;;;5089797;28;21011;-70
2022/11/26 02:00:00;;;;;;;2.23;2.03;;;;;1.80;97406.00;;;;5092750;28;20437;-71
2022/11/26 02:02:49;;;;;;;3.20;1.87;;;;;1.80;97407.00;;;;5086547;28;20979;-70
2022/11/26 02:05:42;;;;;;;4.67;2.53;;;;;1.60;97406.00;;;;5090668;28;20430;-69
2022/11/26 02:08:32;;;;;;;2.77;2.03;;;;;1.40;97417.00;;;;5082562;28;20425;-70
2022/11/26 02:11:25;;;;;;;4.00;2.20;;;;;1.40;97411.00;;;;5079849;28;20422;-70
2022/11/26 02:14:17;;;;;;;2.67;2.03;;;;;2.00;97417.00;;;;5092904;28;20489;-69
2022/11/26 02:17:13;;;;;;;1.63;1.53;;;;;1.80;97424.00;;;;5083873;28;20979;-70
2022/11/26 02:20:40;;;;;;;3.10;2.33;;;;;1.60;97424.00;;;;5082906;28;20434;-69
2022/11/26 02:24:00;;;;;;;1.83;1.27;;;;;1.60;97420.00;;;;5075152;28;20428;-70
2022/11/26 02:27:24;;;;;;;2.03;1.43;;;;;1.50;97428.00;;;;5079576;28;20522;-72
2022/11/26 02:30:15;;;;;;;4.07;1.90;;;;;1.60;97423.00;;;;5081469;28;20464;-70
2022/11/26 02:33:09;;;;;;;3.13;1.30;;;;;2.10;97442.00;;;;5082865;28;20423;-69
2022/11/26 02:36:01;;;;;;;1.63;1.50;;;;;2.10;97440.00;;;;5084528;28;20469;-70
2022/11/26 02:38:51;;;;;;;1.80;1.60;;;;;2.10;97445.00;;;;5090995;28;20433;-69
2022/11/26 02:41:43;;;;;;;3.63;2.07;;;;;1.90;97440.00;;;;5091128;28;20992;-70
2022/11/26 02:44:36;;;;;;;1.93;1.60;;;;;1.70;97437.00;;;;5081109;28;20478;-69
2022/11/26 02:47:27;;;;;;;3.23;1.90;;;;;1.60;97446.00;;;;5081459;28;20960;-69
2022/11/26 02:50:19;;;;;;;1.67;1.37;;;;;1.80;97444.00;;;;5092292;28;20839;-70
2022/11/26 02:53:08;;;;;;;3.50;2.57;;;;;1.40;97446.00;;;;5085515;28;20891;-70
2022/11/26 02:56:02;;;;;;;4.37;2.70;;;;;1.50;97442.00;;;;5074436;28;21058;-69
2022/11/26 02:58:52;;;;;;;2.93;2.13;;;;;1.70;97448.00;;;;5081755;28;20516;-69
2022/11/26 03:01:44;;;;;;;8.23;2.80;;;;;1.80;97460.00;;;;5086114;28;20561;-69
2022/11/26 03:04:38;;;;;;;4.90;2.93;;;;;2.20;97459.00;;;;5077753;28;20531;-69
2022/11/26 03:07:28;;;;;;;3.83;2.10;;;;;2.00;97451.00;;;;5076004;28;20423;-71
2022/11/26 03:10:19;;;;;;;5.57;3.50;;;;;1.80;97448.00;;;;5091354;28;20814;-69
2022/11/26 03:13:08;;;;;;;5.07;2.90;;;;;1.80;97452.00;;;;5083613;28;20418;-69
2022/11/26 03:15:57;;;;;;;2.27;2.07;;;;;1.80;97455.00;;;;5082048;28;20485;-70
2022/11/26 03:18:46;;;;;;;3.37;2.13;;;;;2.20;97463.00;;;;5090175;28;20448;-69
2022/11/26 03:21:36;;;;;;;2.43;2.23;;;;;2.20;97467.00;;;;5085410;28;20472;-70
2022/11/26 03:24:25;;;;;;;2.10;1.93;;;;;1.80;97463.00;;;;5078771;28;20503;-70
2022/11/26 03:27:14;;;;;;;3.00;1.80;;;;;2.40;97465.00;;;;5088301;28;20438;-69
2022/11/26 03:30:03;;;;;;;2.20;2.00;;;;;2.60;97463.00;;;;5090213;28;20426;-69
2022/11/26 03:32:52;;;;;;;5.20;2.00;;;;;2.70;97465.00;;;;5085586;28;20422;-69
2022/11/26 03:35:41;;;;;;;2.87;1.90;;;;;3.00;97478.00;;;;5082000;28;20445;-69
2022/11/26 03:38:32;;;;;;;2.27;1.60;;;;;2.80;97470.00;;;;5081984;28;20430;-69
2022/11/26 03:41:21;;;;;;;2.17;1.97;;;;;2.70;97448.00;;;;5080643;28;20821;-69
2022/11/26 03:44:10;;;;;;;1.43;1.30;;;;;2.60;97468.00;;;;5080134;28;20445;-69
2022/11/26 03:46:59;;;;;;;1.90;1.70;;;;;2.70;97466.00;;;;5085960;28;20456;-69
2022/11/26 03:49:47;;;;;;;1.67;1.40;;;;;2.60;97468.00;;;;5083012;28;20427;-69
2022/11/26 03:52:36;;;;;;;2.13;1.67;;;;;2.80;97470.00;;;;5083086;28;20430;-69
2022/11/26 03:55:27;;;;;;;2.73;1.70;;;;;2.80;97473.00;;;;5089675;28;20434;-69
2022/11/26 03:58:16;;;;;;;2.43;2.17;;;;;2.90;97473.00;;;;5085624;28;20550;-69
2022/11/26 04:01:08;;;;;;;2.17;1.67;;;;;3.00;97483.00;;;;5090511;28;20422;-69
2022/11/26 04:03:57;;;;;;;2.27;2.07;;;;;2.90;97484.00;;;;5088249;28;20495;-69
2022/11/26 04:06:46;;;;;;;3.87;1.43;;;;;2.90;97487.00;;;;5084647;28;20427;-69
2022/11/26 04:09:35;;;;;;;2.07;1.60;;;;;3.10;97491.00;;;;5099880;28;20992;-69
2022/11/26 04:12:25;;;;;;;4.50;1.80;;;;;2.80;97496.00;;;;5077123;28;20427;-69
2022/11/26 04:15:15;;;;;;;4.17;1.80;;;;;2.50;97492.00;;;;5088354;28;20433;-69
2022/11/26 04:18:04;;;;;;;3.03;2.27;;;;;2.70;97498.00;;;;5081281;28;20418;-69
2022/11/26 04:20:53;;;;;;;3.50;1.63;;;;;2.90;97511.00;;;;5087956;28;20964;-69
2022/11/26 04:23:41;;;;;;;2.63;2.10;;;;;3.00;97502.00;;;;5090487;28;20461;-69
2022/11/26 04:26:30;;;;;;;1.87;1.70;;;;;3.10;97503.00;;;;5088185;28;20510;-69
2022/11/26 04:29:21;;;;;;;2.23;1.97;;;;;2.90;97525.00;;;;5075780;28;20421;-69
2022/11/26 04:32:10;;;;;;;4.40;3.60;;;;;3.00;97520.00;;;;5077319;28;20964;-69
2022/11/26 04:34:59;;;;;;;7.13;4.23;;;;;2.90;97522.00;;;;5082528;28;20466;-69
2022/11/26 04:37:48;;;;;;;2.10;2.00;;;;;2.50;97518.00;;;;5082285;28;20521;-69
2022/11/26 04:40:37;;;;;;;2.17;2.03;;;;;2.40;97518.00;;;;5078184;28;20473;-69
2022/11/26 04:43:26;;;;;;;4.00;2.70;;;;;2.70;97517.00;;;;5081559;28;20953;-69
2022/11/26 04:46:16;;;;;;;4.27;3.70;;;;;3.10;97532.00;;;;5078834;28;20835;-69
2022/11/26 04:49:05;;;;;;;7.43;6.83;;;;;3.30;97527.00;;;;5074957;28;20434;-69
2022/11/26 04:51:54;;;;;;;4.50;3.57;;;;;3.00;97536.00;;;;5070150;28;20427;-69
2022/11/26 04:54:43;;;;;;;8.63;5.33;;;;;2.60;97537.00;;;;5086206;28;20975;-69
2022/11/26 04:57:32;;;;;;;4.40;2.70;;;;;2.90;97554.00;;;;5081422;28;20880;-71
2022/11/26 05:00:22;;;;;;;2.07;1.83;;;;;3.10;97557.00;;;;5082811;28;20434;-71
2022/11/26 05:03:12;;;;;;;1.90;1.80;;;;;3.10;97560.00;;;;5077683;28;21019;-71
2022/11/26 05:06:01;;;;;;;5.40;2.53;;;;;3.10;97573.00;;;;5084190;28;20457;-70
2022/11/26 05:08:50;;;;;;;4.33;2.30;;;;;3.10;97556.00;;;;5087455;28;20426;-70
2022/11/26 05:11:39;;;;;;;2.73;2.37;;;;;3.00;97563.00;;;;5075247;28;20531;-71
2022/11/26 05:14:28;;;;;;;5.43;2.87;;;;;3.10;97567.00;;;;5083074;28;20450;-70
2022/11/26 05:17:17;;;;;;;2.30;2.10;;;;;3.10;97573.00;;;;5077029;28;20448;-71
2022/11/26 05:20:09;;;;;;;3.53;2.67;;;;;3.00;97569.00;;;;5076259;28;20446;-70
2022/11/26 05:22:58;;;;;;;4.90;2.93;;;;;3.10;97568.00;;;;5079419;28;21019;-70
2022/11/26 05:25:47;;;;;;;5.30;3.23;;;;;3.00;97579.00;;;;5085602;28;20480;-71
2022/11/26 05:28:36;;;;;;;3.37;2.13;;;;;3.10;97575.00;;;;5086017;28;20506;-71
2022/11/26 05:31:25;;;;;;;3.17;2.87;;;;;2.70;97586.00;;;;5080213;28;20425;-69
2022/11/26 05:34:14;;;;;;;1.90;1.80;;;;;2.60;97590.00;;;;5081484;28;20477;-69
2022/11/26 05:37:04;;;;;;;3.90;2.97;;;;;2.90;97590.00;;;;5082686;28;20467;-70
2022/11/26 05:39:53;;;;;;;4.43;3.10;;;;;3.00;97608.00;;;;5084507;28;20490;-69
2022/11/26 05:42:42;;;;;;;5.07;2.40;;;;;2.60;97607.00;;;;5083157;28;20506;-69
2022/11/26 05:45:31;;;;;;;2.30;2.03;;;;;2.40;97618.00;;;;5080822;28;20465;-70
2022/11/26 05:48:20;;;;;;;5.87;2.77;;;;;2.60;97611.00;;;;5082631;28;20430;-69
2022/11/26 05:51:09;;;;;;;6.03;2.93;;;;;2.80;97623.00;;;;5080129;28;20614;-69
2022/11/26 05:53:59;;;;;;;4.00;2.80;;;;;2.80;97621.00;;;;5085760;28;20899;-70
2022/11/26 05:56:48;;;;;;;4.70;2.70;;;;;2.80;97616.00;;;;5079843;28;20440;-70
2022/11/26 05:59:37;;;;;;;5.33;3.73;;;;;2.70;97609.00;;;;5078228;28;20450;-70
2022/11/26 06:02:26;;;;;;;4.63;3.63;;;;;2.90;97627.00;;;;5085010;28;20438;-69
2022/11/26 06:05:15;;;;;;;3.37;2.40;;;;;2.90;97635.00;;;;5091366;28;20438;-70
2022/11/26 06:08:05;;;;;;;4.23;2.73;;;;;2.80;97628.00;;;;5086826;28;20952;-69
2022/11/26 06:10:55;;;;;;;5.53;3.83;;;;;2.80;97641.00;;;;5086665;28;20838;-69
2022/11/26 06:13:44;;;;;;;4.47;4.00;;;;;2.60;97625.00;;;;5092701;28;20429;-69
2022/11/26 06:16:33;;;;;;;4.60;2.20;;;;;2.80;97631.00;;;;5088808;28;20434;-69
2022/11/26 06:19:22;;;;;;;4.13;2.90;;;;;2.90;97646.00;;;;5088177;28;20433;-69
2022/11/26 06:22:11;;;;;;;6.23;3.37;;;;;2.90;97649.00;;;;5079985;28;21016;-69
2022/11/26 06:25:00;;;;;;;3.50;3.10;;;;;3.30;97652.00;;;;5080473;28;20499;-69
2022/11/26 06:27:51;;;;;;;6.40;4.23;;;;;3.10;97653.00;;;;5078276;28;20480;-69
2022/11/26 06:30:40;;;;;;;14.07;8.60;;;;;2.90;97648.00;;;;5081401;28;20438;-69
2022/11/26 06:33:29;;;;;;;2.47;2.20;;;;;2.50;97654.00;;;;5086703;28;20810;-69
2022/11/26 06:36:18;;;;;;;3.67;2.50;;;;;2.70;97662.00;;;;5082010;28;20799;-69
2022/11/26 06:39:07;;;;;;;3.47;2.37;;;;;2.80;97654.00;;;;5079968;28;20424;-69
2022/11/26 06:41:56;;;;;;;3.27;2.80;;;;;3.20;97667.00;;;;5082938;28;20421;-69
2022/11/26 06:44:46;;;;;;;4.63;3.17;;;;;3.30;97675.00;;;;5092037;28;20548;-69
2022/11/26 06:47:35;;;;;;;7.17;3.40;;;;;3.20;97677.00;;;;5087316;28;20426;-69
2022/11/26 06:50:24;;;;;;;4.80;4.17;;;;;3.00;97683.00;;;;5091175;28;20791;-69
2022/11/26 06:53:13;;;;;;;10.30;3.50;;;;;3.00;97688.00;;;;5076722;28;20452;-70
2022/11/26 06:56:02;;;;;;;7.17;3.50;;;;;3.00;97691.00;;;;5082982;28;21246;-69
2022/11/26 06:58:55;;;;;;;4.57;3.40;;;;;3.20;97686.00;;;;5078971;28;20449;-69
2022/11/26 07:01:45;;;;;;;3.57;2.20;;;;;3.20;97691.00;;;;5083489;28;20819;-69
2022/11/26 07:04:34;;;;;;;3.50;3.07;;;;;3.50;97716.00;;;;5080561;28;21011;-70
2022/11/26 07:07:23;;;;;;;3.20;2.57;;;;;3.60;97708.00;;;;5082271;28;20425;-69
2022/11/26 07:10:12;;;;;;;4.77;3.10;;;;;3.40;97713.00;;;;5078983;28;20429;-69
2022/11/26 07:13:01;;;;;;;1.73;1.43;;;;;3.40;97716.00;;;;5082413;28;20940;-69
2022/11/26 07:15:50;;;;;;;3.10;1.90;;;;;3.50;97726.00;;;;5086611;28;20445;-69
2022/11/26 07:18:41;;;;;;;1.77;1.67;;;;;3.90;97728.00;;;;5082170;28;20439;-69
2022/11/26 07:21:30;;;;;;;7.43;2.37;;;;;3.80;97734.00;;;;5073872;28;20423;-69
2022/11/26 07:24:19;;;;;;;2.60;1.50;;;;;4.00;97740.00;;;;5084948;28;20530;-69
2022/11/26 07:27:09;;;;;;;2.23;1.77;;;;;4.00;97745.00;;;;5086241;28;20507;-69
2022/11/26 07:29:58;;;;;;;3.87;1.80;;;;;3.60;97745.00;;;;5090995;28;20426;-69
2022/11/26 07:32:47;;;;;;;4.50;2.17;;;;;3.40;97740.00;;;;5090548;28;20957;-68
2022/11/26 07:35:38;;;;;;;2.37;1.80;;;;;3.80;97760.00;;;;5083797;28;20438;-68
2022/11/26 07:38:27;;;;;;;3.67;1.70;;;;;4.10;97754.00;;;;5078485;28;20875;-68
2022/11/26 07:41:17;;;;;;;2.70;1.73;;;;;4.10;97757.00;;;;5084344;28;20433;-68
2022/11/26 07:44:06;;;;;;;2.10;1.27;;;;;4.50;97769.00;;;;5080676;28;20819;-69
2022/11/26 07:46:55;;;;;;;1.63;1.53;;;;;4.60;97762.00;;;;5090281;28;20500;-68
2022/11/26 07:49:44;;;;;;;1.93;1.73;;;;;4.30;97769.00;;;;5088544;28;20434;-69
2022/11/26 07:52:36;;;;;;;2.60;2.20;;;;;4.10;97760.00;;;;5090227;28;20432;-68
2022/11/26 07:55:25;;;;;;;2.47;1.90;;;;;4.60;97768.00;;;;5079155;28;20507;-68
2022/11/26 07:58:14;;;;;;;3.33;1.90;;;;;4.80;97776.00;;;;5075113;28;20475;-68
2022/11/26 08:01:08;;;;;;;2.60;1.60;;;;;4.90;97777.00;;;;5070606;28;20855;-68
2022/11/26 08:03:57;;;;;;;2.57;1.80;;;;;4.70;97770.00;;;;5086133;28;20484;-68
2022/11/26 08:06:46;;;;;;;2.10;1.50;;;;;4.70;97778.00;;;;5090607;28;20425;-69
2022/11/26 08:09:37;;;;;;;2.80;1.50;;;;;4.90;97779.00;;;;5079643;28;21060;-68
2022/11/26 08:12:26;;;;;;;1.77;1.57;;;;;5.20;97796.00;;;;5082897;28;20692;-68
2022/11/26 08:15:15;;;;;;;5.10;1.90;;;;;5.30;97800.00;;;;5081569;28;20295;-68
2022/11/26 08:18:04;;;;;;;1.87;1.70;;;;;5.20;97788.00;;;;5080491;28;20968;-68
2022/11/26 08:20:56;;;;;;;2.17;1.83;;;;;5.10;97784.00;;;;5078177;28;20844;-68
2022/11/26 08:23:45;;;;;;;4.13;2.93;;;;;5.50;97793.00;;;;5082389;28;20917;-68
2022/11/26 08:26:36;;;;;;;5.13;4.67;;;;;5.90;97794.00;;;;5077136;28;20200;-68
2022/11/26 08:29:27;;;;;;;3.87;3.47;;;;;5.80;97793.00;;;;5083655;28;20214;-68
2022/11/26 08:32:16;;;;;;;3.50;3.20;;;;;5.70;97806.00;;;;5079960;28;20227;-68
2022/11/26 08:35:06;;;;;;;2.83;2.40;;;;;5.40;97802.00;;;;5074193;28;20222;-69
2022/11/26 08:37:55;;;;;;;6.63;3.00;;;;;5.70;97803.00;;;;5080988;28;20341;-68
2022/11/26 08:40:44;;;;;;;4.83;2.80;;;;;6.00;97811.00;;;;5076082;28;20207;-69
2022/11/26 08:43:35;;;;;;;4.60;2.50;;;;;6.10;97815.00;;;;5088950;28;20272;-68
2022/11/26 08:46:40;;;;;;;3.37;2.17;;;;;6.20;97815.00;;;;5077388;28;20207;-68
2022/11/26 08:49:29;;;;;;;5.70;3.27;;;;;6.60;97826.00;;;;5077344;28;20242;-69
2022/11/26 08:52:18;;;;;;;3.23;2.70;;;;;6.80;97827.00;;;;5080599;28;20265;-68
2022/11/26 08:55:07;;;;;;;3.37;2.53;;;;;6.70;97825.00;;;;5082183;28;20251;-67
2022/11/26 08:57:56;;;;;;;3.23;2.93;;;;;6.70;97832.00;;;;5085488;28;20265;-67
2022/11/26 09:00:47;;;;;;;7.40;3.47;;;;;6.60;97838.00;;;;5075456;28;20192;-68
2022/11/26 09:03:36;;;;;;;9.17;3.73;;;;;6.60;97821.00;;;;5081346;28;20243;-68
2022/11/26 09:06:27;;;;;;;9.20;4.70;;;;;6.70;97831.00;;;;5073593;28;20195;-68
2022/11/26 09:09:16;;;;;;;11.17;4.73;;;;;6.60;97823.00;;;;5079864;28;20675;-69
2022/11/26 09:12:06;;;;;;;10.40;4.80;;;;;6.80;97824.00;;;;5078552;28;20281;-69
2022/11/26 09:14:55;;;;;;;7.40;4.07;;;;;6.90;97824.00;;;;5079619;28;20226;-69
2022/11/26 09:17:45;;;;;;;5.73;3.73;;;;;7.00;97831.00;;;;5087938;28;20200;-69
2022/11/26 09:20:34;;;;;;;4.57;4.03;;;;;6.90;97824.00;;;;5083388;28;20198;-68
2022/11/26 09:23:23;;;;;;;9.37;3.83;;;;;6.70;97829.00;;;;5089660;28;20207;-69
2022/11/26 09:26:12;;;;;;;6.23;4.33;;;;;6.80;97819.00;;;;5084503;28;20234;-68
2022/11/26 09:29:01;;;;;;;14.30;3.83;;;;;6.70;97825.00;;;;5083968;28;20192;-69
2022/11/26 09:31:51;;;;;;;5.20;3.10;;;;;6.70;97809.00;;;;5078704;28;20280;-69
2022/11/26 09:35:02;;;;;;;5.37;3.07;;;;;6.40;97828.00;;;;5077233;28;20215;-69
2022/11/26 09:37:51;;;;;;;11.17;4.13;;;;;6.70;97824.00;;;;5077229;28;20666;-69
2022/11/26 09:40:47;;;;;;;7.93;4.20;;;;;7.00;97825.00;;;;5080422;28;20287;-68
2022/11/26 09:43:51;;;;;;;18.50;4.63;;;;;7.20;97839.00;;;;5078164;28;20231;-68
2022/11/26 09:46:45;;;;;;;13.90;5.07;;;;;7.40;97826.00;;;;5079032;28;20214;-68
2022/11/26 09:50:04;;;;;;;3.27;2.97;;;;;7.20;97841.00;;;;5082101;28;20199;-68
2022/11/26 09:52:57;;;;;;;4.27;2.93;;;;;7.50;97830.00;;;;5082501;28;20207;-68
2022/11/26 09:55:50;;;;;;;4.37;2.97;;;;;7.60;97828.00;;;;5079070;28;20683;-68
2022/11/26 09:58:42;;;;;;;3.40;3.10;;;;;7.70;97832.00;;;;5072927;28;20280;-68
2022/11/26 10:01:32;;;;;;;5.70;3.47;;;;;8.00;97835.00;;;;5086255;28;20203;-68
2022/11/26 10:04:26;;;;;;;6.73;4.13;;;;;8.00;97833.00;;;;5079482;28;20769;-68
2022/11/26 10:07:35;;;;;;;6.43;3.80;;;;;7.50;97826.00;;;;5077363;28;20211;-69
2022/11/26 10:10:29;;;;;;;7.27;3.93;;;;;8.00;97836.00;;;;5077681;28;20199;-69
2022/11/26 10:13:22;;;;;;;7.90;3.53;;;;;8.40;97828.00;;;;5080519;28;20211;-69
2022/11/26 10:16:18;;;;;;;4.43;3.70;;;;;8.60;97838.00;;;;5091548;28;20240;-68
2022/11/26 10:19:13;;;;;;;6.67;4.80;;;;;8.80;97840.00;;;;5091571;28;20603;-69
2022/11/26 10:22:05;;;;;;;12.27;4.83;;;;;9.10;97826.00;;;;5081922;28;20208;-70
2022/11/26 10:24:57;;;;;;;6.97;4.03;;;;;9.70;97835.00;;;;5091375;28;20642;-69
2022/11/26 10:27:47;;;;;;;4.57;4.03;;;;;10.40;97816.00;;;;5082301;28;20880;-69
2022/11/26 10:30:36;;;;;;;6.17;3.77;;;;;11.30;97829.00;;;;5079711;28;20210;-69
2022/11/26 10:33:27;;;;;;;6.70;5.73;;;;;11.60;97814.00;;;;5081455;28;20620;-69
2022/11/26 10:36:23;;;;;;;6.27;3.70;;;;;11.60;97843.00;;;;5082165;28;20203;-69
2022/11/26 10:39:14;;;;;;;6.10;3.40;;;;;10.80;97825.00;;;;5083513;28;20675;-69
2022/11/26 10:42:12;;;;;;;4.63;3.83;;;;;11.90;97829.00;;;;5077810;28;20672;-68
2022/11/26 10:45:18;;;;;;;6.90;4.17;;;;;12.30;97818.00;;;;5091954;28;20227;-69
2022/11/26 10:48:21;;;;;;;7.27;3.80;;;;;12.80;97817.00;;;;5082007;28;20214;-69
2022/11/26 10:51:15;;;;;;;3.80;3.13;;;;;13.60;97813.00;;;;5082606;28;20574;-69
2022/11/26 10:54:06;;;;;;;8.07;4.23;;;;;13.90;97851.00;;;;5088294;28;20331;-69
2022/11/26 10:56:56;;;;;;;5.30;4.00;;;;;13.10;97844.00;;;;5087974;28;20571;-68
2022/11/26 10:59:50;;;;;;;5.00;4.50;;;;;14.30;97826.00;;;;5078362;28;20246;-69
2022/11/26 11:02:40;;;;;;;4.13;3.73;;;;;14.30;97824.00;;;;5084590;28;20246;-68
2022/11/26 11:05:29;;;;;;;5.77;3.23;;;;;14.70;97836.00;;;;5083384;28;20240;-68
2022/11/26 11:08:30;;;;;;;6.47;3.30;;;;;15.10;97825.00;;;;5079026;28;20303;-68
2022/11/26 11:11:21;;;;;;;3.57;2.60;;;;;15.40;97824.00;;;;5081956;28;20202;-68
2022/11/26 11:14:19;;;;;;;6.37;3.33;;;;;16.00;97831.00;;;;5076025;28;20246;-68
2022/11/26 11:17:29;;;;;;;4.17;2.60;;;15.90;94.10;16.10;97852.00;;;;5082333;28;20603;-68
2022/11/26 11:20:29;;;;;;;4.57;2.53;;;15.70;94.80;15.90;97856.00;;;;5078266;28;20203;-68
2022/11/26 11:23:21;;;;;;;4.40;2.50;;;15.40;94.60;15.40;97862.00;;;;5079154;28;20311;-68
2022/11/26 11:26:20;;;;;;;2.57;1.97;;;15.10;94.30;15.00;97849.00;;;;5085869;28;20227;-68
2022/11/26 11:29:32;;;;;;;2.37;1.80;;;14.50;94.40;14.40;97850.00;;;;5080731;28;20206;-67
2022/11/26 11:32:37;;;;;;;5.53;2.00;;;14.00;94.10;14.00;97850.00;;;;5082630;28;20269;-68
2022/11/26 11:35:29;;;;;;;2.90;2.13;;;13.40;94.70;14.00;97843.00;;;;5078200;28;20223;-68
2022/11/26 11:38:24;;;;;;;2.80;2.13;;;13.10;96.00;13.90;97851.00;;;;5080096;28;20208;-68
2022/11/26 11:41:24;;;;;;;1.50;1.27;;;12.80;96.50;13.70;97844.00;;;;5081616;28;20784;-68
2022/11/26 11:44:18;;;;;;;3.50;1.33;;;12.60;96.70;13.50;97844.00;;;;5078660;28;20284;-68
2022/11/26 11:47:35;;;;;;;4.40;1.70;;;12.40;96.50;13.20;97847.00;;;;5078146;28;20223;-68
2022/11/26 11:50:31;;;;;;;2.30;1.60;;;12.10;96.70;13.00;97840.00;;;;5079156;28;20258;-68
2022/11/26 11:53:34;;;;;;;1.57;1.47;;;11.80;97.80;12.90;97843.00;;;;5076851;28;20207;-68
2022/11/26 11:56:30;;;;;;;9.37;3.07;;;11.60;98.50;12.80;97838.00;;;;5074582;28;20252;-68
2022/11/26 12:00:09;;;;;;;3.83;2.70;;;11.40;99.50;12.80;97841.00;;;;5079562;28;20297;-68
2022/11/26 12:03:17;;;;;;;4.13;2.67;;;11.30;99.90;12.80;97837.00;;;;5079687;28;20693;-68
2022/11/26 12:06:20;;;;;;;7.57;2.70;;;11.20;99.90;12.90;97828.00;;;;5076538;28;20277;-69
2022/11/26 12:09:21;;;;;;;5.17;3.00;;;11.10;99.90;12.90;97823.00;;;;5079555;28;20215;-68
2022/11/26 12:12:21;;;;;;;3.73;2.87;;;11.10;99.90;12.90;97827.00;;;;5077987;28;20191;-68
2022/11/26 12:15:22;;;;;;;6.83;2.37;;;11.20;99.90;13.00;97826.00;;;;5079237;28;20553;-68
2022/11/26 12:18:23;;;;;;;2.23;1.90;;;11.20;99.90;13.00;97831.00;;;;5083557;28;20200;-69
2022/11/26 12:21:15;;;;;;;3.37;2.37;;;11.20;99.90;12.90;97830.00;;;;5076550;28;20195;-68
2022/11/26 12:24:12;;;;;;;3.70;2.37;;;11.20;99.90;12.80;97837.00;;;;5083483;28;20298;-68
2022/11/26 12:27:08;;;;;;;2.10;1.90;;;11.20;99.90;12.80;97843.00;;;;5080208;28;20300;-68
2022/11/26 12:30:01;;;;;;;2.43;1.70;;;11.10;99.90;12.70;97842.00;;;;5079798;28;20607;-69
2022/11/26 12:32:56;;;;;;;3.37;2.47;;;11.00;99.90;12.30;97843.00;;;;5081189;28;20203;-69
2022/11/26 12:35:53;;;;;;;1.80;1.33;;;10.90;99.90;12.50;97844.00;;;;5079100;28;20224;-68
2022/11/26 12:38:48;;;;;;;2.37;1.47;;;10.90;99.90;12.40;97841.00;;;;5083914;28;20206;-68
2022/11/26 12:41:43;;;;;;;2.47;1.97;;;10.80;99.90;12.40;97838.00;;;;5082205;28;20199;-68
2022/11/26 12:44:38;;;;;;;2.30;1.70;;;10.70;99.90;12.40;97835.00;;;;5080469;28;20218;-68
2022/11/26 12:47:34;;;;;;;3.03;1.70;;;10.70;99.90;12.40;97837.00;;;;5079746;28;20619;-68
2022/11/26 12:50:30;;;;;;;2.30;1.90;;;10.60;99.90;12.20;97832.00;;;;5076526;28;20546;-68
2022/11/26 12:53:37;;;;;;;3.80;1.90;;;10.60;99.90;12.30;97836.00;;;;5079738;28;20248;-68
2022/11/26 12:56:33;;;;;;;4.27;1.70;;;10.50;99.90;12.30;97828.00;;;;5078425;28;21197;-69
2022/11/26 12:59:29;;;;;;;3.77;1.73;;;10.50;99.90;11.80;97831.00;;;;5074520;28;20199;-68
2022/11/26 13:02:25;;;;;;;1.67;1.40;;;10.60;99.90;11.90;97832.00;;;;5078802;28;20215;-68
2022/11/26 13:05:19;;;;;;;2.07;1.63;;;10.50;99.90;12.30;97837.00;;;;5079976;28;20254;-68
2022/11/26 13:08:32;;;;;;;2.03;1.70;;;10.50;99.90;12.40;97837.00;;;;5082395;28;20568;-68
2022/11/26 13:11:37;;;;;;;2.80;1.80;;;10.50;99.90;12.30;97835.00;;;;5079947;28;20214;-68
2022/11/26 13:14:36;;;;;;;2.77;2.20;;;10.60;99.90;12.30;97841.00;;;;5074735;28;20222;-68
2022/11/26 13:17:37;;;;;;;4.90;3.93;;;10.50;99.90;12.20;97844.00;;;;5077941;28;20195;-68
2022/11/26 13:20:51;;;;;;;3.80;3.00;;;10.50;99.90;11.70;97839.00;;;;5075720;28;20259;-68
2022/11/26 13:24:01;;;;;;;8.97;5.77;;;10.50;99.90;11.80;97842.00;;;;5079066;28;20210;-68
2022/11/26 13:27:25;;;;;;;7.10;5.13;;;10.40;99.90;12.00;97845.00;;;;5076133;28;20215;-68
2022/11/26 13:30:21;;;;;;;5.83;4.33;;;10.30;99.90;12.10;97849.00;;;;5070987;28;20963;-68
2022/11/26 13:33:39;;;;;;;7.50;4.50;;;10.40;99.90;12.20;97851.00;;;;5080701;28;20214;-68
2022/11/26 13:36:58;;;;;;;4.53;3.00;;;10.40;99.90;12.20;97849.00;;;;5080443;28;20284;-69
2022/11/26 13:40:32;;;;;;;6.17;3.43;;;10.40;99.90;12.30;97852.00;;;;5083531;28;20191;-68
2022/11/26 13:44:05;;;;;;;4.27;3.50;;;10.50;99.90;12.30;97844.00;;;;5080751;28;20207;-68
2022/11/26 13:46:58;;;;;;;6.00;3.43;;;10.50;99.90;11.80;97847.00;;;;5083725;28;20238;-68
2022/11/26 13:49:52;;;;;;;4.50;3.00;;;10.50;99.90;11.70;97848.00;;;;5083792;28;20245;-68
2022/11/26 13:52:49;;;;;;;5.73;4.17;;;10.50;99.90;11.80;97854.00;;;;5090828;28;20264;-68
2022/11/26 13:55:46;;;;;;;5.07;4.60;;;10.40;99.90;12.10;97828.00;;;;5086413;28;20219;-68
2022/11/26 13:58:42;;;;;;;5.13;2.33;;;10.50;99.90;13.00;97822.00;;;;5084560;28;20210;-68
2022/11/26 14:01:35;;;;;;;2.07;1.40;;;11.00;99.90;15.00;97840.00;;;;5085305;28;20664;-68
2022/11/26 14:04:57;;;;;;;1.23;1.00;;;11.80;99.90;15.20;97837.00;;;;5086993;28;20226;-68
2022/11/26 14:07:47;;;;;;;1.20;1.10;;;12.80;99.90;16.40;97834.00;;;;5039310;28;20765;-66
2022/11/26 14:10:43;;;;;;;2.83;1.43;;;13.70;99.90;15.40;97856.00;;;;5041548;28;20196;-68
2022/11/26 14:13:32;;;;;;;2.50;1.60;;;14.30;99.90;14.00;97829.00;;;;5079118;28;20200;-68